createdAt,value
2023-01-06T00:00:31.426Z,1.60
2023-01-06T00:02:58.539Z,2.17
2023-01-06T00:05:25.710Z,1.75
2023-01-06T00:07:52.983Z,2.30
2023-01-06T00:10:20.181Z,3.58
2023-01-06T00:12:47.645Z,3.00
2023-01-06T00:15:14.792Z,1.77
2023-01-06T00:17:41.993Z,2.78
2023-01-06T00:20:09.415Z,2.28
2023-01-06T00:22:36.549Z,2.20
2023-01-06T00:25:03.744Z,2.15
2023-01-06T00:27:31.895Z,2.17
2023-01-06T00:29:59.141Z,2.00
2023-01-06T00:32:26.236Z,1.83
2023-01-06T00:34:53.343Z,1.75
2023-01-06T00:37:20.501Z,2.00
2023-01-06T00:39:47.618Z,2.15
2023-01-06T00:42:14.714Z,2.28
2023-01-06T00:44:41.870Z,1.90
2023-01-06T00:47:09.552Z,1.80
2023-01-06T00:49:36.697Z,1.45
2023-01-06T00:52:04.023Z,1.50
2023-01-06T00:54:31.189Z,1.60
2023-01-06T00:56:58.312Z,1.92
2023-01-06T00:59:26.066Z,2.00
2023-01-06T01:01:54.762Z,1.67
2023-01-06T01:04:22.051Z,2.60
2023-01-06T01:06:49.396Z,2.17
2023-01-06T01:09:17.734Z,1.73
2023-01-06T01:12:03.558Z,1.80
2023-01-06T01:14:30.737Z,2.53
2023-01-06T01:16:57.872Z,2.85
2023-01-06T01:19:25.135Z,1.80
2023-01-06T01:21:52.313Z,1.30
2023-01-06T01:24:19.554Z,1.80
2023-01-06T01:26:46.750Z,1.60
2023-01-06T01:29:14.472Z,1.30
2023-01-06T01:31:41.861Z,1.42
2023-01-06T01:34:09.121Z,1.60
2023-01-06T01:36:36.224Z,1.80
2023-01-06T01:39:03.356Z,1.80
2023-01-06T01:41:30.681Z,4.07
2023-01-06T01:44:01.719Z,3.63
2023-01-06T01:46:36.102Z,2.37
2023-01-06T01:49:05.607Z,2.30
2023-01-06T01:51:33.960Z,3.75
2023-01-06T01:54:02.014Z,2.10
2023-01-06T01:56:30.520Z,1.70
2023-01-06T01:59:05.291Z,1.70
2023-01-06T02:01:32.495Z,2.67
2023-01-06T02:04:00.082Z,2.47
2023-01-06T02:06:27.244Z,2.13
2023-01-06T02:08:56.620Z,1.55
2023-01-06T02:11:24.656Z,1.83
2023-01-06T02:13:52.379Z,1.93
2023-01-06T02:16:19.611Z,1.65
2023-01-06T02:18:50.126Z,1.90
2023-01-06T02:21:29.501Z,2.43
2023-01-06T02:23:56.660Z,2.85
2023-01-06T02:26:26.766Z,1.92
2023-01-06T02:28:53.904Z,2.40
2023-01-06T02:31:21.015Z,3.22
2023-01-06T02:33:51.245Z,3.28
2023-01-06T02:36:19.113Z,3.78
2023-01-06T02:38:58.164Z,3.38
2023-01-06T02:41:31.069Z,3.20
2023-01-06T02:44:04.591Z,3.80
2023-01-06T02:46:50.580Z,3.10
2023-01-06T02:49:17.703Z,3.28
2023-01-06T02:51:46.135Z,4.47
2023-01-06T02:54:13.272Z,4.43
2023-01-06T02:56:40.617Z,3.60
2023-01-06T02:59:12.224Z,3.65
2023-01-06T03:01:40.865Z,2.42
2023-01-06T03:04:09.271Z,1.90
2023-01-06T03:06:36.388Z,2.38
2023-01-06T03:09:03.518Z,3.22
2023-01-06T03:11:30.620Z,1.83
2023-01-06T03:13:59.758Z,1.63
2023-01-06T03:16:26.925Z,1.85
2023-01-06T03:18:54.024Z,2.35
2023-01-06T03:21:22.589Z,3.90
2023-01-06T03:23:49.759Z,4.07
2023-01-06T03:26:16.834Z,2.50
2023-01-06T03:28:44.023Z,2.47
2023-01-06T03:31:14.018Z,4.53
2023-01-06T03:33:55.766Z,2.40
2023-01-06T03:36:26.248Z,2.60
2023-01-06T03:38:59.367Z,2.70
2023-01-06T03:41:59.336Z,2.47
2023-01-06T03:44:38.418Z,2.65
2023-01-06T03:47:10.956Z,2.85
2023-01-06T03:49:52.330Z,2.58
2023-01-06T03:52:19.434Z,2.30
2023-01-06T03:55:00.395Z,2.50
2023-01-06T03:57:53.917Z,1.90
2023-01-06T04:00:31.033Z,1.50
2023-01-06T04:02:58.257Z,1.48
2023-01-06T04:05:26.123Z,1.43
2023-01-06T04:07:53.254Z,1.50
2023-01-06T04:10:21.038Z,4.93
2023-01-06T04:12:48.198Z,1.90
2023-01-06T04:15:16.433Z,2.20
2023-01-06T04:17:43.714Z,2.25
2023-01-06T04:20:11.812Z,1.73
2023-01-06T04:22:38.899Z,2.05
2023-01-06T04:25:06.891Z,1.50
2023-01-06T04:27:34.053Z,1.97
2023-01-06T04:30:01.167Z,1.80
2023-01-06T04:32:28.303Z,2.27
2023-01-06T04:34:55.480Z,1.90
2023-01-06T04:37:22.588Z,1.90
2023-01-06T04:39:49.752Z,1.50
2023-01-06T04:42:16.908Z,1.50
2023-01-06T04:44:43.990Z,1.83
2023-01-06T04:47:11.287Z,1.80
2023-01-06T04:49:38.396Z,1.30
2023-01-06T04:52:05.826Z,1.30
2023-01-06T04:54:32.954Z,1.90
2023-01-06T04:57:00.070Z,1.90
2023-01-06T04:59:27.261Z,1.83
2023-01-06T05:01:54.538Z,2.72
2023-01-06T05:04:21.703Z,3.53
2023-01-06T05:06:48.876Z,3.93
2023-01-06T05:09:16.047Z,8.33
2023-01-06T05:11:43.142Z,6.80
2023-01-06T05:14:10.319Z,5.27
2023-01-06T05:16:38.572Z,6.80
2023-01-06T05:19:05.725Z,5.27
2023-01-06T05:21:33.156Z,3.93
2023-01-06T05:24:00.406Z,4.43
2023-01-06T05:26:27.814Z,2.30
2023-01-06T05:28:54.967Z,3.33
2023-01-06T05:31:22.190Z,3.37
2023-01-06T05:33:49.377Z,3.40
2023-01-06T05:36:16.959Z,2.80
2023-01-06T05:38:45.040Z,3.70
2023-01-06T05:41:12.299Z,5.40
2023-01-06T05:43:39.400Z,10.20
2023-01-06T05:46:07.350Z,7.00
2023-01-06T05:48:34.543Z,5.20
2023-01-06T05:51:05.322Z,6.43
2023-01-06T05:53:33.142Z,8.87
2023-01-06T05:56:01.035Z,5.63
2023-01-06T05:58:28.217Z,23.57
2023-01-06T06:00:55.396Z,9.33
2023-01-06T06:03:22.514Z,3.83
2023-01-06T06:05:49.659Z,3.37
2023-01-06T06:08:16.837Z,2.80
2023-01-06T06:10:43.940Z,2.33
2023-01-06T06:13:11.047Z,2.13
2023-01-06T06:15:38.210Z,2.30
2023-01-06T06:18:05.344Z,1.77
2023-01-06T06:20:32.434Z,2.00
2023-01-06T06:22:59.610Z,1.97
2023-01-06T06:25:26.792Z,1.97
2023-01-06T06:27:57.507Z,1.47
2023-01-06T06:30:24.663Z,1.70
2023-01-06T06:32:51.782Z,1.90
2023-01-06T06:35:19.038Z,2.37
2023-01-06T06:37:46.219Z,2.60
2023-01-06T06:40:13.348Z,2.13
2023-01-06T06:42:40.477Z,4.13
2023-01-06T06:45:07.877Z,6.53
2023-01-06T06:47:34.991Z,6.53
2023-01-06T06:50:02.179Z,5.90
2023-01-06T06:52:29.360Z,7.05
2023-01-06T06:54:56.456Z,5.32
2023-01-06T06:57:23.591Z,4.43
2023-01-06T06:59:50.778Z,3.88
2023-01-06T07:02:18.134Z,3.20
2023-01-06T07:04:45.344Z,2.20
2023-01-06T07:07:12.567Z,3.10
2023-01-06T07:09:39.700Z,2.03
2023-01-06T07:12:06.985Z,2.27
2023-01-06T07:14:34.144Z,2.60
2023-01-06T07:17:04.805Z,2.33
2023-01-06T07:19:31.905Z,2.33
2023-01-06T07:21:59.096Z,3.70
2023-01-06T07:24:26.197Z,2.70
2023-01-06T07:26:53.317Z,3.13
2023-01-06T07:29:20.453Z,2.50
2023-01-06T07:31:47.556Z,2.97
2023-01-06T07:34:14.677Z,2.73
2023-01-06T07:36:41.832Z,2.80
2023-01-06T07:39:09.023Z,3.00
2023-01-06T07:41:36.116Z,6.60
2023-01-06T07:44:03.243Z,8.83
2023-01-06T07:46:30.397Z,10.20
2023-01-06T07:48:57.575Z,12.93
2023-01-06T07:51:24.713Z,10.27
2023-01-06T07:53:51.847Z,9.33
2023-01-06T07:56:19.043Z,8.30
2023-01-06T07:58:46.204Z,4.35
2023-01-06T08:01:13.396Z,5.40
2023-01-06T08:03:40.509Z,4.88
2023-01-06T08:06:08.856Z,3.15
2023-01-06T08:08:39.242Z,2.63
2023-01-06T08:11:06.832Z,2.73
2023-01-06T08:13:36.812Z,2.10
2023-01-06T08:16:10.928Z,1.83
2023-01-06T08:18:38.245Z,2.40
2023-01-06T08:21:07.258Z,2.50
2023-01-06T08:23:34.501Z,7.57
2023-01-06T08:26:02.576Z,6.53
2023-01-06T08:28:29.877Z,6.70
2023-01-06T08:30:57.027Z,5.20
2023-01-06T08:33:25.810Z,4.30
2023-01-06T08:35:59.306Z,3.67
2023-01-06T08:38:26.739Z,3.30
2023-01-06T08:40:54.193Z,3.43
2023-01-06T08:43:21.349Z,3.37
2023-01-06T08:45:48.700Z,3.50
2023-01-06T08:48:15.816Z,3.17
2023-01-06T08:50:43.055Z,3.60
2023-01-06T08:53:10.408Z,5.10
2023-01-06T08:55:40.931Z,6.33
2023-01-06T08:58:08.189Z,6.72
2023-01-06T09:00:35.555Z,9.10
2023-01-06T09:03:02.700Z,8.60
2023-01-06T09:05:30.253Z,8.75
2023-01-06T09:07:57.398Z,8.87
2023-01-06T09:10:24.616Z,9.47
2023-01-06T09:12:52.033Z,12.00
2023-01-06T09:15:19.300Z,10.02
2023-01-06T09:17:46.428Z,10.60
2023-01-06T09:20:13.577Z,8.90
2023-01-06T09:22:40.731Z,8.48
2023-01-06T09:25:08.013Z,9.70
2023-01-06T09:27:35.111Z,9.68
2023-01-06T09:30:02.299Z,9.50
2023-01-06T09:32:29.423Z,10.05
2023-01-06T09:34:56.534Z,9.23
2023-01-06T09:37:23.656Z,5.82
2023-01-06T09:39:50.738Z,8.20
2023-01-06T09:42:24.923Z,11.32
2023-01-06T09:44:56.272Z,11.80
2023-01-06T09:47:25.718Z,9.27
2023-01-06T09:49:54.418Z,8.10
2023-01-06T09:52:26.669Z,7.07
2023-01-06T09:54:58.405Z,6.80
2023-01-06T09:57:33.764Z,9.30
2023-01-06T10:00:01.850Z,26.58
2023-01-06T10:02:31.388Z,5.43
2023-01-06T10:04:58.594Z,7.15
2023-01-06T10:07:30.958Z,5.40
2023-01-06T10:10:17.330Z,4.50
2023-01-06T10:12:44.508Z,3.38
2023-01-06T10:15:15.461Z,3.22
2023-01-06T10:18:01.308Z,3.88
2023-01-06T10:20:40.628Z,4.43
2023-01-06T10:23:26.213Z,5.90
2023-01-06T10:25:56.683Z,9.23
2023-01-06T10:28:23.782Z,6.45
2023-01-06T10:30:51.578Z,5.93
2023-01-06T10:33:28.876Z,6.88
2023-01-06T10:35:56.296Z,8.02
2023-01-06T10:38:24.886Z,7.50
2023-01-06T10:40:52.370Z,7.53
2023-01-06T10:43:23.529Z,8.30
2023-01-06T10:45:51.537Z,9.05
2023-01-06T10:48:24.420Z,8.18
2023-01-06T10:50:51.654Z,5.65
2023-01-06T10:53:18.755Z,6.90
2023-01-06T10:55:52.792Z,5.60
2023-01-06T10:58:22.954Z,5.53
2023-01-06T11:00:56.164Z,4.95
2023-01-06T11:03:33.280Z,4.28
2023-01-06T11:06:21.488Z,4.15
2023-01-06T11:08:48.605Z,4.28
2023-01-06T11:11:27.795Z,4.90
2023-01-06T11:13:59.994Z,4.93
2023-01-06T11:16:28.999Z,4.07
2023-01-06T11:18:57.819Z,4.40
2023-01-06T11:21:37.344Z,9.38
2023-01-06T11:24:10.170Z,10.23
2023-01-06T11:26:44.154Z,3.78
2023-01-06T11:29:18.197Z,2.90
2023-01-06T11:31:47.753Z,6.47
2023-01-06T11:34:20.345Z,4.35
2023-01-06T11:36:47.903Z,4.35
2023-01-06T11:39:17.936Z,3.50
2023-01-06T11:41:45.919Z,3.83
2023-01-06T11:44:13.044Z,3.10
2023-01-06T11:46:40.567Z,3.28
2023-01-06T11:49:09.746Z,3.08
2023-01-06T11:51:39.932Z,3.30
2023-01-06T11:54:13.232Z,3.50
2023-01-06T11:56:40.401Z,2.90
2023-01-06T11:59:11.162Z,3.35
2023-01-06T12:01:47.193Z,3.53
2023-01-06T12:04:23.586Z,3.60
2023-01-06T12:06:50.794Z,3.55
2023-01-06T12:09:23.223Z,2.70
2023-01-06T12:11:53.927Z,3.10
2023-01-06T12:14:29.025Z,2.50
2023-01-06T12:16:56.915Z,2.97
2023-01-06T12:19:35.916Z,2.78
2023-01-06T12:22:03.096Z,3.22
2023-01-06T12:24:30.178Z,3.05
2023-01-06T12:26:57.275Z,2.95
2023-01-06T12:29:24.458Z,3.10
2023-01-06T12:32:31.208Z,2.90
2023-01-06T12:34:59.980Z,3.00
2023-01-06T12:37:27.370Z,3.10
2023-01-06T12:40:13.087Z,3.17
2023-01-06T12:42:43.978Z,2.60
2023-01-06T12:45:29.904Z,3.38
2023-01-06T12:47:57.654Z,4.82
2023-01-06T12:50:35.594Z,6.65
2023-01-06T12:53:12.965Z,4.35
2023-01-06T12:55:59.106Z,13.27
2023-01-06T12:58:32.132Z,11.40
2023-01-06T13:01:01.577Z,12.35
2023-01-06T13:03:37.908Z,3.95
2023-01-06T13:06:07.947Z,5.45
2023-01-06T13:08:43.217Z,3.80
2023-01-06T13:11:15.645Z,2.70
2023-01-06T13:13:51.569Z,2.88
2023-01-06T13:16:24.846Z,2.35
2023-01-06T13:19:01.108Z,2.67
2023-01-06T13:21:28.263Z,2.53
2023-01-06T13:23:55.423Z,2.42
2023-01-06T13:26:40.699Z,2.58
2023-01-06T13:29:13.624Z,2.70
2023-01-06T13:31:48.303Z,2.78
2023-01-06T13:34:15.440Z,3.08
2023-01-06T13:36:48.933Z,4.05
2023-01-06T13:39:17.363Z,6.80
2023-01-06T13:41:44.873Z,5.30
2023-01-06T13:44:19.522Z,3.40
2023-01-06T13:46:47.350Z,2.97
2023-01-06T13:49:14.473Z,2.90
2023-01-06T13:51:42.430Z,11.15
2023-01-06T13:54:29.503Z,7.65
2023-01-06T13:57:32.141Z,5.50
2023-01-06T14:00:01.806Z,6.63
2023-01-06T14:02:34.958Z,5.72
2023-01-06T14:05:02.737Z,5.20
2023-01-06T14:07:42.600Z,6.30
2023-01-06T14:10:49.199Z,5.60
2023-01-06T14:13:25.357Z,10.55
2023-01-06T14:15:56.460Z,17.17
2023-01-06T14:18:35.018Z,9.98
2023-01-06T14:21:03.264Z,6.15
2023-01-06T14:23:30.385Z,7.18
2023-01-06T14:25:57.539Z,7.88
2023-01-06T14:28:28.440Z,5.15
2023-01-06T14:31:14.224Z,4.15
2023-01-06T14:33:43.175Z,5.10
2023-01-06T14:36:14.044Z,6.95
2023-01-06T14:38:48.322Z,9.32
2023-01-06T14:41:35.939Z,8.52
2023-01-06T14:44:04.650Z,7.35
2023-01-06T14:46:52.018Z,6.75
2023-01-06T14:49:23.972Z,5.60
2023-01-06T14:51:51.583Z,6.88
2023-01-06T14:54:18.718Z,6.35
2023-01-06T14:56:52.749Z,11.93
2023-01-06T14:59:21.257Z,12.23
2023-01-06T15:01:54.842Z,16.50
2023-01-06T15:04:26.243Z,11.77
2023-01-06T15:06:57.332Z,27.48
2023-01-06T15:09:24.439Z,22.08
2023-01-06T15:11:51.543Z,19.42
2023-01-06T15:14:28.507Z,29.90
2023-01-06T15:16:56.316Z,46.13
2023-01-06T15:19:23.417Z,39.50
2023-01-06T15:21:50.744Z,50.88
2023-01-06T15:24:17.858Z,40.88
2023-01-06T15:26:44.931Z,51.38
2023-01-06T15:29:14.898Z,55.33
2023-01-06T15:31:42.052Z,51.15
2023-01-06T15:34:13.960Z,46.58
2023-01-06T15:36:42.583Z,39.45
2023-01-06T15:39:10.863Z,45.55
2023-01-06T15:41:39.945Z,40.25
2023-01-06T15:44:22.357Z,63.55
2023-01-06T15:46:49.865Z,46.95
2023-01-06T15:49:23.001Z,42.08
2023-01-06T15:51:55.278Z,45.05
2023-01-06T15:54:22.385Z,53.25
2023-01-06T15:56:49.516Z,46.67
2023-01-06T15:59:16.660Z,48.67
2023-01-06T16:02:09.980Z,52.15
2023-01-06T16:04:37.121Z,55.08
2023-01-06T16:07:23.712Z,66.93
2023-01-06T16:09:50.801Z,61.60
2023-01-06T16:12:17.956Z,59.30
2023-01-06T16:14:47.036Z,18.30
2023-01-06T16:17:14.163Z,10.45
2023-01-06T16:19:51.273Z,11.07
2023-01-06T16:22:23.681Z,10.13
2023-01-06T16:24:51.485Z,10.30
2023-01-06T16:27:23.093Z,9.50
2023-01-06T16:30:06.981Z,8.70
2023-01-06T16:32:41.499Z,8.23
2023-01-06T16:35:12.854Z,28.33
2023-01-06T16:37:40.016Z,35.42
2023-01-06T16:40:07.366Z,15.82
2023-01-06T16:42:41.090Z,9.65
2023-01-06T16:45:12.819Z,8.95
2023-01-06T16:47:40.820Z,9.48
2023-01-06T16:50:11.625Z,9.73
2023-01-06T16:52:38.738Z,8.75
2023-01-06T16:55:12.520Z,9.30
2023-01-06T16:57:39.810Z,10.82
2023-01-06T17:00:10.713Z,11.13
2023-01-06T17:02:37.926Z,10.48
2023-01-06T17:05:05.296Z,10.60
2023-01-06T17:07:32.401Z,11.45
2023-01-06T17:09:59.611Z,11.43
2023-01-06T17:12:45.313Z,11.60
2023-01-06T17:15:12.636Z,9.98
2023-01-06T17:17:39.733Z,9.93
2023-01-06T17:20:11.003Z,10.18
2023-01-06T17:22:38.175Z,10.75
2023-01-06T17:25:10.101Z,10.32
2023-01-06T17:27:37.238Z,8.35
2023-01-06T17:30:07.127Z,10.20
2023-01-06T17:32:37.797Z,11.13
2023-01-06T17:35:23.636Z,11.80
2023-01-06T17:37:50.778Z,9.95
2023-01-06T17:40:18.508Z,8.45
2023-01-06T17:42:45.699Z,9.50
2023-01-06T17:45:14.448Z,12.40
2023-01-06T17:47:45.127Z,12.82
2023-01-06T17:50:21.105Z,10.63
2023-01-06T17:53:08.169Z,9.38
2023-01-06T17:55:43.649Z,14.23
2023-01-06T17:58:17.633Z,9.43
2023-01-06T18:00:44.860Z,10.80
2023-01-06T18:03:24.579Z,11.45
2023-01-06T18:05:51.760Z,11.10
2023-01-06T18:08:18.980Z,13.88
2023-01-06T18:10:51.345Z,10.07
2023-01-06T18:13:25.431Z,7.45
2023-01-06T18:15:58.893Z,6.18
2023-01-06T18:18:30.760Z,5.07
2023-01-06T18:21:16.211Z,6.25
2023-01-06T18:23:43.752Z,5.18
2023-01-06T18:26:25.790Z,4.65
2023-01-06T18:29:10.997Z,3.35
2023-01-06T18:31:38.513Z,6.25
2023-01-06T18:34:18.402Z,6.55
2023-01-06T18:36:47.316Z,7.90
2023-01-06T18:39:15.393Z,4.60
2023-01-06T18:41:42.602Z,3.85
2023-01-06T18:44:19.805Z,4.72
2023-01-06T18:46:47.115Z,5.13
2023-01-06T18:49:15.615Z,7.75
2023-01-06T18:51:43.054Z,5.40
2023-01-06T18:54:13.654Z,4.88
2023-01-06T18:56:40.796Z,5.68
2023-01-06T18:59:09.225Z,6.57
2023-01-06T19:01:43.247Z,6.82
2023-01-06T19:04:21.253Z,6.18
2023-01-06T19:06:48.468Z,5.55
2023-01-06T19:09:15.706Z,4.45
2023-01-06T19:11:42.799Z,5.60
2023-01-06T19:14:13.735Z,4.70
2023-01-06T19:16:44.014Z,3.67
2023-01-06T19:19:11.152Z,5.20
2023-01-06T19:21:38.961Z,3.90
2023-01-06T19:24:26.373Z,4.38
2023-01-06T19:26:53.619Z,4.65
2023-01-06T19:29:20.869Z,3.72
2023-01-06T19:31:51.846Z,3.70
2023-01-06T19:34:19.032Z,3.65
2023-01-06T19:36:48.511Z,4.88
2023-01-06T19:39:18.718Z,3.67
2023-01-06T19:41:46.402Z,3.30
2023-01-06T19:44:13.936Z,3.67
2023-01-06T19:46:44.590Z,3.65
2023-01-06T19:49:14.427Z,4.35
2023-01-06T19:51:41.544Z,4.55
2023-01-06T19:57:49.237Z,3.50
2023-01-06T20:00:19.423Z,4.70
2023-01-06T20:02:46.653Z,4.15
2023-01-06T20:05:13.935Z,10.85
2023-01-06T20:07:41.216Z,8.35
2023-01-06T20:10:08.489Z,7.63
2023-01-06T20:12:35.625Z,4.93
2023-01-06T20:15:03.914Z,6.00
2023-01-06T20:17:32.215Z,6.15
2023-01-06T20:19:59.379Z,6.07
2023-01-06T20:22:26.928Z,7.65
2023-01-06T20:24:54.043Z,5.63
2023-01-06T20:27:22.081Z,6.00
2023-01-06T20:29:49.322Z,6.40
2023-01-06T20:32:16.505Z,11.65
2023-01-06T20:34:43.741Z,10.82
2023-01-06T20:37:10.875Z,7.57
2023-01-06T20:39:38.042Z,9.75
2023-01-06T20:42:05.652Z,12.98
2023-01-06T20:44:32.789Z,10.60
2023-01-06T20:46:59.892Z,11.05
2023-01-06T20:49:27.820Z,9.77
2023-01-06T20:51:54.995Z,8.60
2023-01-06T20:54:22.100Z,8.85
2023-01-06T20:56:49.254Z,7.70
2023-01-06T20:59:16.347Z,7.95
2023-01-06T21:01:44.615Z,7.78
2023-01-06T21:04:11.854Z,7.85
2023-01-06T21:06:38.952Z,7.55
2023-01-06T21:09:06.114Z,7.85
2023-01-06T21:11:33.288Z,8.07
2023-01-06T21:14:00.388Z,8.52
2023-01-06T21:16:27.542Z,8.50
2023-01-06T21:18:54.745Z,7.40
2023-01-06T21:21:21.899Z,7.63
2023-01-06T21:23:49.004Z,7.43
2023-01-06T21:26:17.276Z,7.00
2023-01-06T21:28:44.478Z,5.50
2023-01-06T21:31:11.748Z,6.43
2023-01-06T21:33:39.035Z,5.72
2023-01-06T21:36:06.275Z,4.55
2023-01-06T21:38:34.615Z,7.47
2023-01-06T21:41:24.484Z,10.38
2023-01-06T21:43:51.796Z,18.55
2023-01-06T21:46:18.991Z,22.50
2023-01-06T21:48:46.207Z,26.23
2023-01-06T21:51:13.340Z,21.02
2023-01-06T21:53:40.526Z,14.82
2023-01-06T21:56:08.796Z,16.42
2023-01-06T21:58:35.947Z,15.85
2023-01-06T22:01:03.205Z,11.43
2023-01-06T22:03:30.509Z,10.23
2023-01-06T22:05:57.712Z,12.85
2023-01-06T22:08:24.841Z,16.92
2023-01-06T22:10:52.012Z,21.98
2023-01-06T22:13:20.186Z,25.55
2023-01-06T22:15:47.304Z,24.13
2023-01-06T22:18:14.464Z,20.48
2023-01-06T22:20:41.569Z,13.73
2023-01-06T22:23:09.550Z,11.15
2023-01-06T22:25:36.679Z,12.02
2023-01-06T22:28:03.950Z,13.02
2023-01-06T22:30:31.246Z,17.05
2023-01-06T22:32:58.462Z,20.38
2023-01-06T22:35:25.597Z,17.75
2023-01-06T22:37:52.694Z,20.33
2023-01-06T22:40:20.470Z,23.33
2023-01-06T22:42:47.595Z,23.20
2023-01-06T22:45:14.747Z,21.15
2023-01-06T22:47:41.930Z,20.40
2023-01-06T22:50:09.255Z,14.95
2023-01-06T22:52:36.408Z,15.15
2023-01-06T22:55:03.537Z,14.23
2023-01-06T22:57:30.633Z,14.23
2023-01-06T22:59:58.416Z,13.15
2023-01-06T23:02:25.749Z,13.65
2023-01-06T23:04:52.994Z,13.10
2023-01-06T23:07:20.087Z,15.68
2023-01-06T23:09:47.210Z,12.65
2023-01-06T23:12:14.504Z,10.80
2023-01-06T23:14:41.635Z,11.95
2023-01-06T23:17:08.779Z,19.42
2023-01-06T23:19:35.883Z,23.17
2023-01-06T23:22:02.994Z,21.63
2023-01-06T23:24:30.126Z,20.77
2023-01-06T23:26:57.255Z,19.15
2023-01-06T23:29:24.365Z,16.10
2023-01-06T23:31:51.490Z,12.98
2023-01-06T23:34:18.688Z,12.55
2023-01-06T23:36:45.938Z,11.18
2023-01-06T23:39:13.839Z,11.15
2023-01-06T23:41:40.936Z,9.68
2023-01-06T23:44:08.140Z,7.00
2023-01-06T23:46:36.297Z,7.43
2023-01-06T23:49:03.465Z,6.50
2023-01-06T23:51:32.176Z,6.32
2023-01-06T23:54:02.721Z,6.50
2023-01-06T23:56:30.460Z,7.60
2023-01-06T23:58:58.121Z,6.93
